Latest Weather Observations for Julia Creek

IDQ60801

Issued at 7:05 pm EST Saturday 26 July 2014 (issued every 30 minutes, with the page automatically refreshed every 10 minutes)

About weather observations | Map of weather stations | Latest weather observations for QLD | Other Formats
Station Details ID: 029058 Name: JULIA CREEK AIRPORT Lat: -20.67 Lon: 141.72 Height: 122.5 m
Data from the previous 72 hours. | See also: Recent months at Julia Creek
Date/Time
EST
Temp
°C
App
Temp
°C
Dew
Point
Rel
Hum
%
Delta-T
°C
Wind Press
QNH
hPa
Press
MSL
hPa
Rain
since 9 am
mm
Dir
 
Spd
km/h
Gust
km/h
Spd
kts
Gust
kts
26/07:00pm 25.5 22.1 7.6 32 9.5 SSE 15 19 8 10 1020.4 1020.2 0.0
26/06:30pm 26.6 23.2 7.6 30 10.2 SSE 15 19 8 10 1020.1 - 0.0
26/06:00pm 28.2 23.9 8.0 28 11.0 SSE 20 28 11 15 1019.8 1019.6 0.0
26/05:30pm 29.1 24.6 8.7 28 11.3 S 22 30 12 16 1019.5 - 0.0
26/05:00pm 29.5 25.0 8.5 27 11.6 S 22 32 12 17 1019.4 1019.2 0.0
26/04:30pm 29.2 24.6 8.3 27 11.5 SSE 22 28 12 15 1019.3 - 0.0
26/04:00pm 29.3 26.0 9.4 29 11.1 SSE 17 24 9 13 1019.3 1019.1 0.0
26/03:30pm 31.2 28.2 10.5 28 11.9 SSE 17 30 9 16 1019.2 - 0.0
26/03:00pm 29.1 27.1 10.3 31 10.7 S 11 20 6 11 1019.2 1019.0 0.0
26/02:30pm 30.1 27.8 10.6 30 11.2 SE 13 22 7 12 1019.4 - 0.0
26/02:00pm 29.8 27.7 11.3 32 10.7 ESE 13 19 7 10 1019.8 1019.6 0.0
26/01:30pm 29.6 27.6 11.6 33 10.5 ESE 13 20 7 11 1020.4 - 0.0
26/01:00pm 29.1 28.0 10.7 32 10.5 S 7 17 4 9 1020.8 1020.6 0.0
26/12:30pm 29.3 28.3 10.4 31 10.7 SSW 6 15 3 8 1021.4 - 0.0
26/12:00pm 27.6 26.7 10.8 35 9.5 SW 6 11 3 6 1022.0 1021.8 0.0
26/11:30am 26.9 26.4 10.6 36 9.2 N 4 7 2 4 1022.6 - 0.0
26/11:00am 26.4 26.2 10.5 37 8.9 NNW 2 9 1 5 1023.1 1022.9 0.0
26/10:30am 25.4 25.2 10.4 39 8.4 SE 2 6 1 3 1023.3 - 0.0
26/10:00am 24.9 22.5 8.8 36 8.7 SSE 11 15 6 8 1023.5 1023.3 0.0
26/09:30am 22.8 19.0 3.9 29 9.3 SSE 13 15 7 8 1023.5 - 0.0
26/09:00am 21.8 17.4 2.5 28 9.1 S 15 20 8 11 1023.3 1023.1 0.0
26/08:30am 21.4 17.1 3.1 30 8.7 S 15 20 8 11 1023.2 - 0.0
26/08:00am 18.5 14.2 1.1 31 7.8 S 13 19 7 10 1022.9 1022.6 0.0
26/07:30am 15.7 11.8 1.1 37 6.4 SSE 11 13 6 7 1022.3 - 0.0
26/07:00am 15.6 11.7 1.0 37 6.3 S 11 13 6 7 1022.0 1021.8 0.0
26/06:30am 16.4 12.5 0.9 35 6.8 S 11 13 6 7 1021.6 - 0.0
26/06:00am 17.6 14.5 1.2 33 7.3 SE 7 7 4 4 1021.2 1021.0 0.0
26/05:30am 18.9 16.1 1.9 32 7.8 SSE 6 7 3 4 1021.2 - 0.0
26/05:00am 19.0 16.0 2.0 32 7.8 S 7 11 4 6 1021.0 1020.8 0.0
26/04:30am 20.2 16.9 2.5 31 8.3 SSE 9 9 5 5 1020.7 - 0.0
26/04:00am 20.4 17.5 2.7 31 8.3 SSE 7 11 4 6 1020.7 1020.5 0.0
26/03:30am 21.0 17.1 3.2 31 8.5 SSE 13 17 7 9 1020.2 - 0.0
26/03:00am 21.6 17.4 3.8 31 8.6 S 15 20 8 11 1020.2 1020.0 0.0
26/02:30am 21.7 17.5 3.9 31 8.7 S 15 22 8 12 1020.3 - 0.0
26/02:00am 22.5 17.7 5.4 33 8.6 SSW 20 22 11 12 1020.1 1019.9 0.0
26/01:30am 20.6 18.4 3.3 32 8.2 SE 4 6 2 3 1019.8 - 0.0
26/01:00am 21.3 18.4 4.8 34 8.1 SSE 9 9 5 5 1019.9 1019.7 0.0
26/12:30am 21.3 18.7 4.4 33 8.3 SSE 7 9 4 5 1020.2 - 0.0
26/12:00am 21.5 18.9 4.1 32 8.5 S 7 9 4 5 1020.2 1020.0 0.0
 
Date/Time
EST
Temp
°C
App
Temp
°C
Dew
Point
Rel
Hum
%
Delta-T
°C
Wind Press
QNH
hPa
Press
MSL
hPa
Rain
since 9 am
mm
Dir
 
Spd
km/h
Gust
km/h
Spd
kts
Gust
kts
25/11:30pm 20.9 19.5 3.6 32 8.3 CALM 0 7 0 4 1020.2 - 0.0
25/11:00pm 21.6 20.2 3.8 31 8.6 CALM 0 4 0 2 1020.5 1020.3 0.0
25/10:30pm 22.2 19.6 4.3 31 8.8 ESE 7 11 4 6 1020.4 - 0.0
25/10:00pm 22.7 20.5 5.2 32 8.8 S 6 7 3 4 1020.2 1020.0 0.0
25/09:30pm 22.9 20.6 4.9 31 9.0 S 6 7 3 4 1020.2 - 0.0
25/09:00pm 23.8 21.6 5.2 30 9.4 S 6 7 3 4 1019.9 1019.7 0.0
25/08:30pm 24.2 22.0 5.5 30 9.5 S 6 9 3 5 1019.7 - 0.0
25/08:00pm 24.3 21.9 5.1 29 9.7 S 7 7 4 4 1019.4 1019.2 0.0
25/07:30pm 25.3 22.9 4.4 26 10.5 SW 6 7 3 4 1019.1 - 0.0
25/07:00pm 26.2 24.0 5.2 26 10.7 WSW 6 7 3 4 1018.7 1018.5 0.0
25/06:30pm 27.5 26.7 6.3 26 11.2 CALM 0 0 0 0 1018.2 - 0.0
25/06:00pm 28.8 27.4 7.4 26 11.6 W 4 7 2 4 1017.9 1017.7 0.0
25/05:30pm 29.1 28.2 7.7 26 11.7 NNW 2 6 1 3 1017.6 - 0.0
25/05:00pm 29.4 27.6 7.3 25 12.0 NW 6 9 3 5 1017.4 1017.2 0.0
25/04:30pm 29.8 28.5 7.7 25 12.1 NNW 4 9 2 5 1017.4 - 0.0
25/04:00pm 30.0 28.7 7.8 25 12.1 N 4 9 2 5 1017.2 1017.0 0.0
25/03:30pm 30.6 29.1 8.3 25 12.4 NW 6 13 3 7 1017.2 - 0.0
25/03:00pm 29.5 27.9 8.0 26 11.8 N 6 13 3 7 1017.4 1017.2 0.0
25/02:30pm 30.7 29.4 7.8 24 12.6 WSW 4 9 2 5 1017.6 - 0.0
25/02:00pm 30.2 28.7 8.6 26 12.0 W 6 9 3 5 1017.8 1017.6 0.0
25/01:30pm 28.8 27.2 7.9 27 11.4 N 6 11 3 6 1018.2 - 0.0
25/01:00pm 29.0 28.0 8.7 28 11.2 N 4 17 2 9 1018.7 1018.5 0.0
25/12:30pm 29.4 27.6 9.5 29 11.2 NNW 9 15 5 8 1019.2 - 0.0
25/12:00pm 29.3 27.2 9.9 30 10.9 N 11 17 6 9 1019.7 1019.5 0.0
25/11:30am 28.4 25.6 10.1 32 10.3 N 15 24 8 13 1020.1 - 0.0
25/11:00am 27.3 24.1 10.1 34 9.6 N 17 24 9 13 1020.4 1020.2 0.0
25/10:30am 26.5 22.8 10.2 36 9.1 N 20 28 11 15 1020.8 - 0.0
25/10:00am 25.5 22.1 10.5 39 8.4 N 19 22 10 12 1020.8 1020.6 0.0
25/09:30am 24.3 21.7 10.6 42 7.6 N 15 24 8 13 1020.9 - 0.0
25/09:00am 22.4 20.5 8.9 42 7.2 N 9 17 5 9 1020.7 1020.5 0.0
25/08:30am 19.2 17.9 4.2 37 7.2 CALM 0 0 0 0 1020.4 - 0.0
25/08:00am 14.7 12.3 -0.2 36 6.3 ENE 2 6 1 3 1020.1 1019.9 0.0
25/07:30am 11.6 7.9 -2.6 37 5.5 E 7 7 4 4 1019.7 - 0.0
25/07:00am 10.7 7.1 -3.4 37 5.3 ESE 6 7 3 4 1019.4 1019.2 0.0
25/06:30am 10.9 7.2 -3.2 37 5.3 E 7 11 4 6 1018.8 - 0.0
25/06:00am 11.8 9.7 -1.0 41 5.1 CALM 0 0 0 0 1018.5 1018.3 0.0
25/05:30am 11.7 9.5 -1.8 39 5.3 CALM 0 0 0 0 1018.0 - 0.0
25/05:00am 12.0 8.8 -0.8 41 5.2 S 6 9 3 5 1017.6 1017.4 0.0
25/04:30am 11.8 8.8 -2.0 38 5.4 WSW 4 6 2 3 1017.5 - 0.0
25/04:00am 13.2 10.1 0.3 41 5.4 NW 6 7 3 4 1017.4 1017.2 0.0
25/03:30am 14.7 10.8 3.2 46 5.2 ENE 13 17 7 9 1017.0 - 0.0
25/03:00am 14.0 11.2 2.3 45 5.2 NE 6 6 3 3 1016.7 1016.5 0.0
25/02:30am 14.1 12.2 0.4 39 5.8 CALM 0 0 0 0 1016.5 - 0.0
25/02:00am 14.8 12.9 0.6 38 6.1 CALM 0 0 0 0 1016.6 1016.4 0.0
25/01:30am 15.3 13.3 -0.1 35 6.5 CALM 0 0 0 0 1016.7 - 0.0
25/01:00am 15.2 13.5 1.7 40 6.0 CALM 0 0 0 0 1016.9 1016.7 0.0
25/12:30am 16.3 14.4 0.8 35 6.8 CALM 0 0 0 0 1016.8 - 0.0
25/12:00am 16.4 14.0 -0.3 32 7.1 W 2 4 1 2 1016.8 1016.6 0.0
 
Date/Time
EST
Temp
°C
App
Temp
°C
Dew
Point
Rel
Hum
%
Delta-T
°C
Wind Press
QNH
hPa
Press
MSL
hPa
Rain
since 9 am
mm
Dir
 
Spd
km/h
Gust
km/h
Spd
kts
Gust
kts
24/11:30pm 17.5 15.1 2.3 36 6.9 NW 4 6 2 3 1016.9 - 0.0
24/11:00pm 17.9 16.1 1.0 32 7.5 CALM 0 4 0 2 1016.9 1016.7 0.0
24/10:30pm 18.9 16.0 1.4 31 7.9 N 6 7 3 4 1016.9 - 0.0
24/10:00pm 20.1 18.4 2.0 30 8.4 CALM 0 0 0 0 1016.9 1016.7 0.0
24/09:30pm 20.5 17.6 1.4 28 8.8 WSW 6 6 3 3 1016.8 - 0.0
24/09:00pm 20.4 17.3 0.3 26 9.0 WSW 6 6 3 3 1016.7 1016.5 0.0
24/08:30pm 20.9 18.3 0.7 26 9.2 W 4 6 2 3 1016.5 - 0.0
24/08:00pm 21.5 19.2 2.7 29 8.9 W 4 6 2 3 1016.3 1016.1 0.0
24/07:30pm 21.6 18.6 1.8 27 9.2 WNW 7 9 4 5 1015.9 - 0.0
24/07:00pm 22.8 20.0 1.8 25 9.9 W 6 7 3 4 1015.6 1015.3 0.0
24/06:30pm 24.2 21.3 2.4 24 10.5 WNW 7 9 4 5 1015.3 - 0.0
24/06:00pm 26.9 23.8 3.4 22 11.7 WNW 9 11 5 6 1015.0 1014.7 0.0
24/05:30pm 28.5 24.8 4.7 22 12.3 WNW 13 19 7 10 1014.7 - 0.0
24/05:00pm 29.0 25.6 5.8 23 12.2 NNW 13 26 7 14 1014.4 1014.1 0.0
24/04:30pm 29.0 25.6 5.8 23 12.2 N 13 19 7 10 1014.4 - 0.0
24/04:00pm 29.6 25.0 5.6 22 12.6 NW 19 24 10 13 1014.2 1013.9 0.0
24/03:30pm 29.6 26.1 5.6 22 12.7 N 13 22 7 12 1014.2 - 0.0
24/03:00pm 29.6 25.8 5.6 22 12.6 NNW 15 22 8 12 1014.5 1014.2 0.0
24/02:30pm 29.3 25.8 3.3 19 13.2 NNW 11 22 6 12 1014.6 - 0.0
24/02:00pm 29.3 25.6 4.7 21 12.7 NNW 13 26 7 14 1014.9 1014.6 0.0
24/01:30pm 28.3 25.4 4.6 22 12.2 NNW 9 17 5 9 1015.4 - 0.0
24/01:00pm 28.8 25.2 6.8 25 11.8 NNW 15 20 8 11 1015.8 1015.5 0.0
24/12:30pm 27.7 24.5 7.0 27 11.1 NNW 13 20 7 11 1016.4 - 0.0
24/12:00pm 26.9 23.2 6.3 27 10.8 NNW 15 22 8 12 1017.0 1016.8 0.0
24/11:30am 26.1 22.6 7.2 30 10.0 N 15 22 8 12 1017.4 - 0.0
24/11:00am 26.2 23.1 7.3 30 10.0 N 13 20 7 11 1017.8 1017.6 0.0
24/10:30am 25.0 22.4 7.6 33 9.2 N 11 19 6 10 1017.8 - 0.0
24/10:00am 24.1 22.1 7.3 34 8.8 N 7 13 4 7 1017.6 1017.4 0.0
24/09:30am 22.6 20.1 6.4 35 8.3 NNE 9 13 5 7 1017.7 - 0.0
24/09:00am 20.1 16.5 2.9 32 8.1 NE 11 15 6 8 1017.3 1017.1 0.0
24/08:30am 17.7 14.6 -0.1 30 7.7 NNE 6 17 3 9 1017.0 - 0.0
24/08:00am 14.0 10.4 -3.3 30 6.8 NE 6 7 3 4 1016.4 1016.2 0.0
24/07:30am 11.6 7.7 -4.5 32 6.0 NE 7 9 4 5 1016.0 - 0.0
24/07:00am 10.3 5.6 -4.9 34 5.5 NE 11 13 6 7 1015.6 1015.3 0.0
24/06:30am 9.8 5.0 -5.7 33 5.5 NE 11 13 6 7 1015.4 - 0.0
24/06:00am 10.4 6.4 -6.0 31 5.8 ENE 7 9 4 5 1015.0 1014.7 0.0
24/05:30am 11.4 7.2 -4.3 33 5.8 ENE 9 11 5 6 1014.8 - 0.0
24/05:00am 10.6 6.2 -6.2 30 5.9 E 9 13 5 7 1014.7 1014.4 0.0
24/04:30am 10.7 4.4 -6.1 30 5.9 N 19 24 10 13 1014.6 - 0.0
24/04:00am 9.3 5.3 -7.8 29 5.7 ESE 6 9 3 5 1014.1 1013.8 0.0
24/03:30am 9.3 4.3 -7.8 29 5.7 SSW 11 17 6 9 1014.0 - 0.0
24/03:00am 10.8 6.6 -7.4 27 6.2 E 7 7 4 4 1013.8 1013.6 0.0
24/02:30am 10.6 7.3 -8.1 26 6.3 E 2 6 1 3 1013.8 - 0.0
24/02:00am 11.2 8.3 -7.6 26 6.5 CALM 0 0 0 0 1013.8 1013.6 0.0
24/01:30am 12.2 9.1 -6.2 27 6.6 E 2 4 1 2 1014.2 - 0.0
24/01:00am 12.1 9.2 -7.8 24 6.9 CALM 0 0 0 0 1014.4 1014.1 0.0
24/12:30am 12.0 9.1 -8.5 23 7.0 CALM 0 2 0 1 1014.4 - 0.0
24/12:00am 12.6 9.8 -7.4 24 7.0 CALM 0 2 0 1 1014.4 1014.1 0.0
 
Date/Time
EST
Temp
°C
App
Temp
°C
Dew
Point
Rel
Hum
%
Delta-T
°C
Wind Press
QNH
hPa
Press
MSL
hPa
Rain
since 9 am
mm
Dir
 
Spd
km/h
Gust
km/h
Spd
kts
Gust
kts
23/11:30pm 12.7 9.1 -7.9 23 7.2 NE 4 4 2 2 1014.6 - 0.0
23/11:00pm 13.3 9.9 -5.3 27 6.9 NE 4 6 2 3 1014.8 1014.5 0.0
23/10:30pm 14.3 10.9 -4.9 26 7.3 NE 4 4 2 2 1015.0 - 0.0
23/10:00pm 14.4 11.7 -6.4 23 7.6 CALM 0 2 0 1 1015.2 1014.9 0.0
23/09:30pm 17.2 13.8 -2.4 26 8.1 N 6 6 3 3 1015.1 - 0.0
23/09:00pm 17.4 15.0 -3.4 24 8.4 CALM 0 0 0 0 1015.1 1014.8 0.0
23/08:30pm 18.1 15.5 -5.2 20 9.1 CALM 0 0 0 0 1015.0 - 0.0
23/08:00pm 18.5 15.9 -4.9 20 9.3 CALM 0 0 0 0 1014.9 1014.6 0.0
23/07:30pm 19.7 15.9 -6.0 17 10.1 W 6 6 3 3 1014.5 - 0.0

Other Formats:

Comma delimited format used in spreadsheet applications
http://www.bom.gov.au/fwo/IDQ60801/IDQ60801.94337.axf

JavaScript Object Notation format (JSON) in row-major order
http://www.bom.gov.au/fwo/IDQ60801/IDQ60801.94337.json